Aérodrome :
LOGIN :

S'inscrire | Disclaimer

   EN    FR    IT 

 










Légende :    VFR   VFR Marginal   IFR   IFR Intensif   IFR Très Intensif
Visi : 
Plafond : 
>= 8 km
>= 3000ft
5 à 8 km
1000 à 3000 ft
1500m à 5 km
500 à 1000 ft
800 à 1500m
200 à 500 ft
< 800m
< 200 ft
Symboles :   Orages  Brouillard  Fortes neiges  Fortes précipitations  Vent > 20 kt
SIGMETs :   Divers  Orages  Givrage  Turbulence  Onde Orograph.  Cendres Volcan.







- Altitude de l'aérodrome : 309 ft
- Code IATA : FNI
- Voir les cartes d'approche


LFTW - Nîmes Garons

DERNIER METAR :
  • 230230Z AUTO 36004KT 9999 FEW009 BKN074 21/19 Q1017 NOSIG

METARs EXPIRÉS :
  • 230200Z AUTO 00000KT 9999 BKN008 21/19 Q1017
  • 230130Z AUTO 35001KT 9000 FEW012 BKN078 21/20 Q1017
  • 230100Z AUTO 00000KT 9999 BKN009 BKN013 BKN082 22/20 Q1017
  • 230030Z AUTO 00000KT 9999 FEW011 OVC078 22/20 Q1017
  • 230000Z AUTO VRB01KT 9999 FEW012 OVC074 22/20 Q1017
  • 222330Z AUTO VRB02KT 9999 BKN010 BKN074 21/20 Q1017

TAF TAF LFTW
Valide du 23 à 03h jusqu'au 24 à 03h UTC


230200Z 2303/2403 VRB01KT 9000 FEW012 BKN068
BECMG 2313/2315 18010KT CAVOK
BECMG 2318/2320 30010KT
Pas de NOTAMs connus pour ce terrain.



MET'MAP, la Météo Aéronautique d'un coup d'oeil ! - Copyright ORBIFLY Décembre 2007 - Disclaimer

ORBIFLY MET'MAP TEAM :

Programmation & Développement : Alexandra Zaïnal
Conception & Développement : Baudouin d'Aumeries
Co-Programmation & Développement : Marc-Olivier Méhu
Soutien technique & logistique : Manuel Goepfert

Contact : metmap@orbifly.com




SOURCES & CREDITS :

   NOAA